Uwharie, North Carolina
Current Conditions -  °F | °C
As of 4:55 AM on Wednesday 26 Nov 2014 (Local Time) from KVUJ Reporting Station
Moderate Rain Moderate Rain  
Wind Chill: 38°   Ceiling: 800
Heat Index: 45°   Visibility: 10mi
Dew Point: 45°   Wind: 15mph
Humidity: 99%   Direction: 10°N
Pressure: 29.96"   Gusts: 25mph
Location:  35.4086°N, 79.9566°W
Report Text: KVUJ 260955Z AUTO 01013G22KT 10SM RA OVC008 07/07 A2996 RMK AO2 P0008 T00720071
Loading
Personal Weather Stations






























Interactive Weather Map New forecast layout! Learn more

10-Day Weather Forecast

Advertisements
Track Severe Weather on mobile